Time;durP1;ratioP1;P1;durP2;ratioP2;P2;SDS_P1;SDS_P2;PMS_P1;PMS_P2;Temp;Humidity;BMP_temperature;BMP_pressure;BME280_temperature;BME280_humidity;BME280_pressure;Samples;Min_cycle;Max_cycle;Signal;HPM_P1;HPM_P2
2021/07/03 00:01:52;;;;;;;35.27;21.67;;;;;;;;;;5079450;28;20260;-56
2021/07/03 00:04:17;;;;;;;35.43;21.30;;;;;;;;;;5077271;28;20216;-56
2021/07/03 00:06:42;;;;;;;42.47;22.10;;;;;;;;;;5079869;28;20191;-56
2021/07/03 00:09:07;;;;;;;37.20;21.57;;;;;;;;;;5065616;28;20576;-57
2021/07/03 00:11:33;;;;;;;41.07;21.47;;;;;;;;;;5081351;28;20197;-56
2021/07/03 00:13:58;;;;;;;27.20;19.90;;;;;;;;;;5075076;28;20625;-58
2021/07/03 00:16:24;;;;;;;38.13;20.70;;;;;;;;;;5080467;28;20239;-57
2021/07/03 00:18:49;;;;;;;31.30;19.77;;;;;;;;;;5059792;28;20193;-56
2021/07/03 00:21:15;;;;;;;29.10;19.53;;;;;;;;;;5078058;28;20253;-57
2021/07/03 00:23:40;;;;;;;34.87;21.03;;;;;;;;;;5078691;28;20204;-56
2021/07/03 00:26:05;;;;;;;30.13;20.80;;;;;;;;;;5075505;28;20274;-56
2021/07/03 00:28:30;;;;;;;37.63;20.27;;;;;;;;;;5077730;28;20538;-57
2021/07/03 00:30:56;;;;;;;33.97;20.67;;;;;;;;;;5080680;28;20637;-57
2021/07/03 00:33:21;;;;;;;32.27;20.37;;;;;;;;;;5082945;28;20192;-57
2021/07/03 00:35:47;;;;;;;33.23;20.43;;;;;;;;;;5083062;28;20204;-58
2021/07/03 00:38:12;;;;;;;32.97;22.20;;;;;;;;;;5087403;28;20184;-57
2021/07/03 00:40:37;;;;;;;39.13;20.57;;;;;;;;;;5085227;28;20206;-57
2021/07/03 00:43:02;;;;;;;35.83;22.43;;;;;;;;;;5082348;28;20193;-57
2021/07/03 00:45:28;;;;;;;31.33;20.47;;;;;;;;;;5080884;28;20213;-58
2021/07/03 00:47:53;;;;;;;34.53;22.10;;;;;;;;;;5066311;28;20196;-58
2021/07/03 00:50:19;;;;;;;35.60;22.93;;;;;;;;;;5081758;28;20605;-58
2021/07/03 00:52:45;;;;;;;35.07;22.43;;;;;;;;;;5083640;28;20196;-56
2021/07/03 00:55:10;;;;;;;31.57;21.97;;;;;;;;;;5085824;28;20585;-57
2021/07/03 00:57:37;;;;;;;28.77;19.80;;;;;;;;;;5067965;28;20260;-56
2021/07/03 01:00:05;;;;;;;31.50;19.50;;;;;;;;;;5083519;28;20226;-57
2021/07/03 01:02:30;;;;;;;30.67;19.17;;;;;;;;;;5085655;28;20193;-56
2021/07/03 01:04:55;;;;;;;31.50;19.40;;;;;;;;;;5060446;28;20228;-58
2021/07/03 01:07:20;;;;;;;29.63;18.70;;;;;;;;;;5069684;28;20264;-57
2021/07/03 01:09:46;;;;;;;29.93;18.00;;;;;;;;;;5081420;28;20185;-57
2021/07/03 01:12:11;;;;;;;29.93;17.73;;;;;;;;;;5079390;28;21218;-57
2021/07/03 01:14:44;;;;;;;26.40;18.67;;;;;;;;;;5082278;28;20239;-57
2021/07/03 01:17:12;;;;;;;26.43;17.13;;;;;;;;;;5083609;28;20582;-59
2021/07/03 01:19:39;;;;;;;33.77;17.23;;;;;;;;;;5082585;28;20219;-57
2021/07/03 01:22:06;;;;;;;26.63;17.80;;;;;;;;;;5084507;28;20199;-58
2021/07/03 01:24:32;;;;;;;30.67;17.30;;;;;;;;;;5076439;28;20642;-56
2021/07/03 01:26:57;;;;;;;26.70;18.17;;;;;;;;;;5080957;28;20264;-57
2021/07/03 01:29:25;;;;;;;40.83;20.07;;;;;;;;;;5076069;28;20652;-57
2021/07/03 01:31:52;;;;;;;29.33;19.27;;;;;;;;;;5062257;28;21051;-59
2021/07/03 01:34:19;;;;;;;37.47;20.97;;;;;;;;;;5080020;28;20173;-58
2021/07/03 01:36:45;;;;;;;33.33;21.10;;;;;;;;;;5075371;28;20189;-57
2021/07/03 01:39:10;;;;;;;38.10;21.50;;;;;;;;;;5058852;28;20185;-57
2021/07/03 01:41:37;;;;;;;45.77;20.93;;;;;;;;;;5064359;28;20216;-59
2021/07/03 01:44:03;;;;;;;30.00;20.10;;;;;;;;;;5077126;28;20243;-57
2021/07/03 01:46:29;;;;;;;31.90;21.03;;;;;;;;;;5082345;28;20221;-57
2021/07/03 01:48:59;;;;;;;31.80;20.87;;;;;;;;;;5066800;28;20200;-56
2021/07/03 01:51:24;;;;;;;37.33;21.43;;;;;;;;;;5078086;28;20259;-57
2021/07/03 01:53:50;;;;;;;40.67;21.37;;;;;;;;;;5081267;28;20638;-58
2021/07/03 01:56:15;;;;;;;35.33;21.30;;;;;;;;;;5077373;28;20217;-58
2021/07/03 01:58:40;;;;;;;30.83;20.33;;;;;;;;;;5086764;28;20668;-57
2021/07/03 02:01:06;;;;;;;34.30;21.07;;;;;;;;;;5079971;28;20643;-57
2021/07/03 02:03:31;;;;;;;34.57;20.17;;;;;;;;;;5084570;28;20234;-58
2021/07/03 02:05:56;;;;;;;30.70;19.90;;;;;;;;;;5082001;28;20243;-57
2021/07/03 02:08:22;;;;;;;32.27;20.00;;;;;;;;;;5077087;28;20184;-57
2021/07/03 02:10:48;;;;;;;38.97;21.30;;;;;;;;;;5079584;28;20221;-58
2021/07/03 02:13:14;;;;;;;36.37;20.47;;;;;;;;;;5084074;28;20272;-58
2021/07/03 02:15:39;;;;;;;35.20;21.17;;;;;;;;;;5080531;28;20291;-57
2021/07/03 02:18:05;;;;;;;33.97;18.77;;;;;;;;;;5082143;28;20197;-57
2021/07/03 02:20:33;;;;;;;27.97;19.60;;;;;;;;;;5064161;28;20184;-56
2021/07/03 02:22:59;;;;;;;37.50;20.10;;;;;;;;;;5076808;28;20609;-58
2021/07/03 02:25:26;;;;;;;31.10;19.63;;;;;;;;;;5078626;28;20563;-56
2021/07/03 02:27:51;;;;;;;34.37;19.07;;;;;;;;;;5076181;28;20680;-56
2021/07/03 02:30:17;;;;;;;32.43;18.80;;;;;;;;;;5079023;28;20200;-56
2021/07/03 02:32:43;;;;;;;37.87;18.53;;;;;;;;;;5078964;28;20247;-56
2021/07/03 02:35:10;;;;;;;28.73;17.07;;;;;;;;;;5081690;28;20288;-56
2021/07/03 02:37:36;;;;;;;34.63;18.80;;;;;;;;;;5082272;28;20262;-57
2021/07/03 02:40:07;;;;;;;33.53;19.17;;;;;;;;;;5068160;28;20208;-57
2021/07/03 02:42:32;;;;;;;38.33;21.10;;;;;;;;;;5072570;28;20211;-58
2021/07/03 02:44:58;;;;;;;46.30;21.10;;;;;;;;;;5060897;28;20221;-57
2021/07/03 02:47:23;;;;;;;35.23;20.53;;;;;;;;;;5075219;28;20617;-57
2021/07/03 02:49:48;;;;;;;33.93;20.57;;;;;;;;;;5078829;28;20196;-58
2021/07/03 02:52:14;;;;;;;32.77;20.97;;;;;;;;;;5083693;28;20723;-57
2021/07/03 02:54:39;;;;;;;41.70;22.53;;;;;;;;;;5077632;28;20205;-57
2021/07/03 02:57:04;;;;;;;38.77;22.10;;;;;;;;;;5079325;28;20275;-56
2021/07/03 02:59:30;;;;;;;47.00;22.27;;;;;;;;;;5078274;28;20201;-58
2021/07/03 03:01:55;;;;;;;42.83;22.73;;;;;;;;;;5060099;28;20196;-56
2021/07/03 03:04:21;;;;;;;42.43;23.33;;;;;;;;;;5081589;28;20225;-56
2021/07/03 03:06:47;;;;;;;43.60;22.63;;;;;;;;;;5082875;28;20831;-57
2021/07/03 03:09:14;;;;;;;34.67;23.27;;;;;;;;;;5062672;28;20185;-57
2021/07/03 03:11:39;;;;;;;38.23;23.43;;;;;;;;;;5060624;28;20232;-58
2021/07/03 03:14:04;;;;;;;43.67;25.83;;;;;;;;;;5074780;28;20200;-58
2021/07/03 03:16:30;;;;;;;41.87;25.90;;;;;;;;;;5077986;28;20729;-57
2021/07/03 03:18:56;;;;;;;42.20;24.90;;;;;;;;;;5055491;28;20204;-57
2021/07/03 03:21:22;;;;;;;43.47;26.97;;;;;;;;;;5057680;28;20189;-57
2021/07/03 03:23:47;;;;;;;37.47;26.00;;;;;;;;;;5081175;28;20208;-58
2021/07/03 03:26:12;;;;;;;29.57;22.20;;;;;;;;;;5081512;28;20611;-56
2021/07/03 03:28:38;;;;;;;24.43;18.37;;;;;;;;;;5078878;28;20249;-59
2021/07/03 03:31:05;;;;;;;29.03;18.17;;;;;;;;;;5080117;28;20233;-57
2021/07/03 03:33:30;;;;;;;22.47;17.73;;;;;;;;;;5077737;28;20181;-57
2021/07/03 03:35:56;;;;;;;18.23;14.63;;;;;;;;;;5086646;28;20216;-58
2021/07/03 03:38:21;;;;;;;17.23;13.50;;;;;;;;;;5081506;28;20199;-58
2021/07/03 03:40:47;;;;;;;25.17;15.53;;;;;;;;;;5075687;28;20191;-58
2021/07/03 03:43:12;;;;;;;23.10;15.50;;;;;;;;;;5080933;28;20242;-59
2021/07/03 03:45:38;;;;;;;31.43;19.73;;;;;;;;;;5077602;28;20763;-56
2021/07/03 03:48:04;;;;;;;28.50;18.10;;;;;;;;;;5082535;28;20193;-57
2021/07/03 03:50:30;;;;;;;26.07;16.57;;;;;;;;;;5078264;28;20205;-56
2021/07/03 03:52:56;;;;;;;27.20;17.03;;;;;;;;;;5060332;28;20604;-57
2021/07/03 03:55:21;;;;;;;25.97;16.40;;;;;;;;;;5080635;28;20216;-58
2021/07/03 03:57:47;;;;;;;26.93;17.03;;;;;;;;;;5079285;28;20193;-58
2021/07/03 04:00:13;;;;;;;29.33;18.60;;;;;;;;;;5085993;28;20189;-56
2021/07/03 04:02:38;;;;;;;33.13;19.67;;;;;;;;;;5074489;28;20189;-57
2021/07/03 04:05:05;;;;;;;29.63;19.03;;;;;;;;;;5060324;28;20233;-56
2021/07/03 04:07:30;;;;;;;32.53;19.57;;;;;;;;;;5084155;28;20656;-56
2021/07/03 04:09:55;;;;;;;37.77;21.37;;;;;;;;;;5063880;28;20181;-57
2021/07/03 04:12:21;;;;;;;39.83;24.13;;;;;;;;;;5064149;28;20571;-57
2021/07/03 04:14:46;;;;;;;38.30;23.80;;;;;;;;;;5080986;28;20205;-56
2021/07/03 04:17:12;;;;;;;38.13;23.43;;;;;;;;;;5076384;28;20184;-57
2021/07/03 04:19:37;;;;;;;39.63;23.23;;;;;;;;;;5077858;28;20641;-57
2021/07/03 04:22:03;;;;;;;40.97;22.97;;;;;;;;;;5078763;28;20680;-57
2021/07/03 04:24:28;;;;;;;39.90;22.93;;;;;;;;;;5086874;28;20248;-57
2021/07/03 04:26:54;;;;;;;38.93;23.10;;;;;;;;;;5088846;28;20188;-58
2021/07/03 04:29:19;;;;;;;39.77;23.87;;;;;;;;;;5083766;28;20281;-56
2021/07/03 04:31:44;;;;;;;34.67;24.43;;;;;;;;;;5084169;28;20193;-58
2021/07/03 04:34:10;;;;;;;41.07;23.93;;;;;;;;;;5081410;28;20181;-58
2021/07/03 04:36:35;;;;;;;35.70;22.37;;;;;;;;;;5084748;28;20874;-57
2021/07/03 04:39:01;;;;;;;34.33;22.20;;;;;;;;;;5066699;28;20207;-57
2021/07/03 04:41:26;;;;;;;34.43;24.10;;;;;;;;;;5084464;28;20607;-57
2021/07/03 04:43:51;;;;;;;33.10;22.13;;;;;;;;;;5084307;28;20204;-59
2021/07/03 04:46:17;;;;;;;37.60;22.63;;;;;;;;;;5065175;28;20216;-56
2021/07/03 04:48:42;;;;;;;36.30;23.70;;;;;;;;;;5079529;28;20265;-57
2021/07/03 04:51:07;;;;;;;33.70;21.53;;;;;;;;;;5085611;28;20188;-58
2021/07/03 04:53:33;;;;;;;33.13;21.03;;;;;;;;;;5086196;28;20726;-58
2021/07/03 04:55:58;;;;;;;33.43;20.40;;;;;;;;;;5064339;28;20583;-57
2021/07/03 04:58:23;;;;;;;30.00;20.93;;;;;;;;;;5070507;28;20220;-57
2021/07/03 05:00:49;;;;;;;29.90;21.37;;;;;;;;;;5083789;28;20223;-58
2021/07/03 05:03:14;;;;;;;29.33;20.37;;;;;;;;;;5067004;28;20246;-56
2021/07/03 05:05:39;;;;;;;28.27;20.07;;;;;;;;;;5080614;28;20223;-59
2021/07/03 05:08:05;;;;;;;28.57;19.77;;;;;;;;;;5083680;28;20204;-56
2021/07/03 05:10:30;;;;;;;28.70;20.33;;;;;;;;;;5066238;28;20714;-57
2021/07/03 05:12:56;;;;;;;25.57;19.43;;;;;;;;;;5082877;28;20247;-57
2021/07/03 05:15:22;;;;;;;27.10;19.33;;;;;;;;;;5083306;28;20216;-57
2021/07/03 05:17:47;;;;;;;26.07;19.17;;;;;;;;;;5060755;28;20737;-56
2021/07/03 05:20:13;;;;;;;30.00;20.60;;;;;;;;;;5062340;28;20193;-57
2021/07/03 05:22:39;;;;;;;28.60;18.87;;;;;;;;;;5066706;28;20196;-57
2021/07/03 05:25:05;;;;;;;23.83;17.50;;;;;;;;;;5076923;28;20221;-57
2021/07/03 05:27:30;;;;;;;28.07;20.43;;;;;;;;;;5065555;28;20272;-57
2021/07/03 05:29:55;;;;;;;22.80;15.80;;;;;;;;;;5080039;28;20272;-58
2021/07/03 05:32:20;;;;;;;22.20;17.80;;;;;;;;;;5082109;28;20193;-57
2021/07/03 05:34:46;;;;;;;28.73;17.87;;;;;;;;;;5065900;28;20316;-57
2021/07/03 05:37:11;;;;;;;23.00;17.03;;;;;;;;;;5080465;28;20189;-56
2021/07/03 05:39:36;;;;;;;24.60;16.97;;;;;;;;;;5083271;28;20599;-58
2021/07/03 05:42:02;;;;;;;22.37;16.37;;;;;;;;;;5079846;28;20185;-59
2021/07/03 05:44:28;;;;;;;28.13;19.50;;;;;;;;;;5081116;28;20785;-56
2021/07/03 05:46:54;;;;;;;23.00;17.03;;;;;;;;;;5063950;28;20542;-57
2021/07/03 05:49:19;;;;;;;23.57;17.40;;;;;;;;;;5057722;28;20212;-57
2021/07/03 05:51:46;;;;;;;20.47;15.77;;;;;;;;;;5059532;28;20238;-58
2021/07/03 05:54:11;;;;;;;24.10;16.93;;;;;;;;;;5079947;28;20189;-59
2021/07/03 05:56:36;;;;;;;27.73;18.90;;;;;;;;;;5062441;28;20216;-57
2021/07/03 05:59:02;;;;;;;21.53;16.80;;;;;;;;;;5080794;28;20193;-58
2021/07/03 06:01:27;;;;;;;23.17;16.80;;;;;;;;;;5083103;28;20313;-58
2021/07/03 06:03:53;;;;;;;23.33;16.20;;;;;;;;;;5080491;28;20254;-58
2021/07/03 06:06:18;;;;;;;20.07;15.10;;;;;;;;;;5084336;28;20204;-57
2021/07/03 06:08:43;;;;;;;20.07;15.93;;;;;;;;;;5068184;28;20584;-57
2021/07/03 06:11:09;;;;;;;16.47;14.10;;;;;;;;;;5080602;28;20671;-58
2021/07/03 06:13:35;;;;;;;20.67;15.40;;;;;;;;;;5065848;28;20726;-60
2021/07/03 06:16:00;;;;;;;22.75;15.60;;;;;;;;;;5081659;28;20219;-57
2021/07/03 06:18:26;;;;;;;17.08;13.77;;;;;;;;;;5057100;28;20302;-60
2021/07/03 06:20:52;;;;;;;18.90;13.93;;;;;;;;;;5079933;28;20664;-58
2021/07/03 06:23:17;;;;;;;18.08;14.27;;;;;;;;;;5082410;28;20184;-57
2021/07/03 06:25:43;;;;;;;18.27;13.65;;;;;;;;;;5078993;28;20215;-57
2021/07/03 06:28:08;;;;;;;20.67;14.45;;;;;;;;;;5078318;28;20209;-57
2021/07/03 06:30:33;;;;;;;18.55;14.48;;;;;;;;;;5062216;28;20176;-57
2021/07/03 06:32:59;;;;;;;16.42;13.32;;;;;;;;;;5081652;28;20199;-59
2021/07/03 06:35:24;;;;;;;16.50;13.82;;;;;;;;;;5067000;28;20200;-59
2021/07/03 06:37:49;;;;;;;20.85;14.90;;;;;;;;;;5079777;28;20186;-58
2021/07/03 06:40:15;;;;;;;18.40;14.02;;;;;;;;;;5081032;28;20644;-58
2021/07/03 06:42:40;;;;;;;19.42;15.77;;;;;;;;;;5078141;28;20183;-56
2021/07/03 06:45:06;;;;;;;17.33;13.65;;;;;;;;;;5078968;28;20261;-57
2021/07/03 06:47:32;;;;;;;20.60;14.02;;;;;;;;;;5078542;28;20205;-59
2021/07/03 06:49:57;;;;;;;24.27;15.88;;;;;;;;;;5061984;28;20219;-58
2021/07/03 06:52:22;;;;;;;22.08;15.57;;;;;;;;;;5068247;28;20185;-57
2021/07/03 06:54:48;;;;;;;20.38;15.38;;;;;;;;;;5077493;28;20357;-58
2021/07/03 06:57:14;;;;;;;26.48;15.20;;;;;;;;;;5062691;28;20193;-56
2021/07/03 06:59:39;;;;;;;22.05;15.25;;;;;;;;;;5080577;28;21201;-58
2021/07/03 07:02:04;;;;;;;19.50;15.35;;;;;;;;;;5082643;28;20177;-58
2021/07/03 07:04:30;;;;;;;22.77;16.17;;;;;;;;;;5077743;28;20208;-57
2021/07/03 07:06:56;;;;;;;21.80;14.68;;;;;;;;;;5076479;28;20665;-57
2021/07/03 07:09:25;;;;;;;18.63;14.57;;;;;;;;;;5078736;28;20188;-57
2021/07/03 07:11:52;;;;;;;20.13;15.32;;;;;;;;;;5060120;28;20193;-58
2021/07/03 07:14:17;;;;;;;17.75;14.07;;;;;;;;;;5079079;28;20180;-59
2021/07/03 07:16:43;;;;;;;19.33;13.95;;;;;;;;;;5063887;28;20839;-58
2021/07/03 07:19:08;;;;;;;21.55;14.73;;;;;;;;;;5084926;28;20196;-56
2021/07/03 07:21:34;;;;;;;16.70;12.75;;;;;;;;;;5076351;28;20193;-59
2021/07/03 07:24:01;;;;;;;16.52;13.10;;;;;;;;;;5080279;28;20287;-58
2021/07/03 07:26:26;;;;;;;16.20;12.10;;;;;;;;;;5083058;28;20219;-57
2021/07/03 07:28:51;;;;;;;14.57;11.18;;;;;;;;;;5081406;28;20184;-57
2021/07/03 07:31:18;;;;;;;14.70;12.05;;;;;;;;;;5065760;28;20180;-57
2021/07/03 07:33:44;;;;;;;17.00;12.73;;;;;;;;;;5078809;28;20278;-57
2021/07/03 07:36:10;;;;;;;15.75;12.63;;;;;;;;;;5077511;28;20675;-59
2021/07/03 07:38:35;;;;;;;17.10;12.85;;;;;;;;;;5082739;28;20278;-57
2021/07/03 07:41:00;;;;;;;18.40;13.90;;;;;;;;;;5075508;28;20177;-56
2021/07/03 07:43:26;;;;;;;18.60;13.70;;;;;;;;;;5078994;28;20220;-58
2021/07/03 07:45:53;;;;;;;17.38;13.32;;;;;;;;;;5081062;28;20219;-60
2021/07/03 07:48:18;;;;;;;17.95;13.25;;;;;;;;;;5079278;28;20219;-57
2021/07/03 07:50:43;;;;;;;19.73;14.40;;;;;;;;;;5077836;28;20180;-59
2021/07/03 07:53:09;;;;;;;17.42;13.65;;;;;;;;;;5065483;28;20600;-61
2021/07/03 07:55:34;;;;;;;18.80;14.07;;;;;;;;;;5080592;28;20208;-60
2021/07/03 07:57:59;;;;;;;15.98;13.77;;;;;;;;;;5079850;28;20257;-56
2021/07/03 08:00:25;;;;;;;16.40;14.70;;;;;;;;;;5061663;28;20198;-59
2021/07/03 08:02:50;;;;;;;17.45;15.57;;;;;;;;;;5083339;28;20185;-59
2021/07/03 08:05:17;;;;;;;21.27;15.57;;;;;;;;;;5062787;28;20219;-56
2021/07/03 08:07:43;;;;;;;17.10;15.38;;;;;;;;;;5058845;28;20209;-59
2021/07/03 08:10:09;;;;;;;15.60;13.93;;;;;;;;;;5084325;28;20189;-58
2021/07/03 08:12:34;;;;;;;20.13;15.20;;;;;;;;;;5084159;28;20672;-60
2021/07/03 08:15:00;;;;;;;16.50;14.55;;;;;;;;;;5060145;28;20219;-61
2021/07/03 08:17:25;;;;;;;14.32;12.95;;;;;;;;;;5066134;28;20603;-61
2021/07/03 08:19:51;;;;;;;17.42;14.52;;;;;;;;;;5081491;28;20172;-59
2021/07/03 08:22:16;;;;;;;16.17;14.10;;;;;;;;;;5081733;28;20702;-56
2021/07/03 08:24:41;;;;;;;15.63;12.73;;;;;;;;;;5088229;22;20236;-58
2021/07/03 08:27:07;;;;;;;19.67;12.43;;;;;;;;;;5060357;28;20280;-58
2021/07/03 08:29:32;;;;;;;15.52;12.98;;;;;;;;;;5060317;28;20200;-58
2021/07/03 08:31:57;;;;;;;15.45;13.85;;;;;;;;;;5059308;28;20196;-58
2021/07/03 08:34:23;;;;;;;16.05;13.93;;;;;;;;;;5068214;28;20253;-57
2021/07/03 08:36:48;;;;;;;13.40;12.00;;;;;;;;;;5061558;28;20210;-57
2021/07/03 08:39:13;;;;;;;14.35;12.85;;;;;;;;;;5080749;28;20192;-57
2021/07/03 08:41:40;;;;;;;14.68;12.43;;;;;;;;;;5074331;28;20194;-58
2021/07/03 08:44:07;;;;;;;13.68;12.02;;;;;;;;;;5053645;28;20232;-58
2021/07/03 08:46:32;;;;;;;13.07;11.70;;;;;;;;;;5079879;28;20235;-58
2021/07/03 08:48:58;;;;;;;12.77;11.40;;;;;;;;;;5082848;28;20188;-57
2021/07/03 08:51:24;;;;;;;15.02;11.98;;;;;;;;;;5083755;28;20675;-58
2021/07/03 08:53:50;;;;;;;11.35;10.25;;;;;;;;;;5084205;28;20220;-58
2021/07/03 08:56:16;;;;;;;12.20;10.57;;;;;;;;;;5084409;28;20263;-58
2021/07/03 08:58:41;;;;;;;15.38;13.38;;;;;;;;;;5085466;28;20275;-59
2021/07/03 09:01:06;;;;;;;14.45;13.05;;;;;;;;;;5087975;28;20673;-58
2021/07/03 09:03:32;;;;;;;14.45;13.05;;;;;;;;;;5083143;28;20758;-59
2021/07/03 09:06:03;;;;;;;16.85;12.75;;;;;;;;;;5079965;28;20215;-58
2021/07/03 09:08:29;;;;;;;11.32;9.60;;;;;;;;;;5085192;28;20721;-58
2021/07/03 09:11:12;;;;;;;10.25;9.10;;;;;;;;;;5090485;28;20241;-58
2021/07/03 09:13:39;;;;;;;12.38;11.10;;;;;;;;;;5083737;28;20238;-57
2021/07/03 09:16:05;;;;;;;13.57;12.18;;;;;;;;;;5082216;28;20262;-58
2021/07/03 09:18:32;;;;;;;13.25;11.85;;;;;;;;;;5085801;28;20272;-58
2021/07/03 09:21:02;;;;;;;13.05;11.75;;;;;;;;;;5089110;28;20556;-57
2021/07/03 09:23:33;;;;;;;12.57;11.13;;;;;;;;;;5069408;28;20584;-58
2021/07/03 09:26:01;;;;;;;12.38;11.10;;;;;;;;;;5083768;28;20216;-57
2021/07/03 09:28:32;;;;;;;13.30;10.95;;;;;;;;;;5087172;28;20711;-58
2021/07/03 09:31:02;;;;;;;11.82;10.63;;;;;;;;;;5090626;28;20230;-58
2021/07/03 09:33:31;;;;;;;12.50;11.20;;;;;;;;;;5083054;28;20181;-58
2021/07/03 09:36:08;;;;;;;11.88;10.57;;;;;;;;;;5084515;28;20204;-58
2021/07/03 09:38:50;;;;;;;12.32;11.07;;;;;;;;;;5085654;28;20184;-58
2021/07/03 09:41:29;;;;;;;11.50;10.40;;;;;;;;;;5078330;28;20180;-57
2021/07/03 09:44:00;;;;;;;12.50;9.40;;;;;;;;;;5071517;28;20219;-57
2021/07/03 09:46:31;;;;;;;10.70;9.70;;;;;;;;;;5080223;28;20200;-57
2021/07/03 09:49:02;;;;;;;10.00;9.00;;;;;;;;;;5084876;28;20192;-57
2021/07/03 09:51:36;;;;;;;10.82;8.95;;;;;;;;;;5089834;28;20189;-57
2021/07/03 09:54:03;;;;;;;11.52;10.27;;;;;;;;;;5066212;28;20193;-58
2021/07/03 09:56:28;;;;;;;9.80;8.80;;;;;;;;;;5078718;28;20583;-58
2021/07/03 09:58:54;;;;;;;10.48;9.48;;;;;;;;;;5074800;28;20227;-58
2021/07/03 10:01:19;;;;;;;9.20;8.40;;;;;;;;;;5089527;28;20187;-58
2021/07/03 10:03:45;;;;;;;10.55;8.60;;;;;;;;;;5071658;28;20727;-58
2021/07/03 10:06:15;;;;;;;9.60;8.20;;;;;;;;;;5083685;28;20188;-58
2021/07/03 10:08:44;;;;;;;10.35;9.45;;;;;;;;;;5087795;28;20703;-58
2021/07/03 10:11:15;;;;;;;9.52;8.25;;;;;;;;;;5089574;28;20580;-57
2021/07/03 10:13:41;;;;;;;8.80;8.07;;;;;;;;;;5066707;28;20184;-58
2021/07/03 10:16:08;;;;;;;8.98;8.07;;;;;;;;;;5084424;28;20180;-57
2021/07/03 10:18:34;;;;;;;7.78;7.15;;;;;;;;;;5082963;28;20684;-58
2021/07/03 10:21:09;;;;;;;9.00;7.43;;;;;;;;;;5088307;28;20265;-58
2021/07/03 10:23:39;;;;;;;7.82;7.03;;;;;;;;;;5075181;28;20195;-58
2021/07/03 10:26:05;;;;;;;8.82;7.88;;;;;;;;;;5078128;28;20648;-57
2021/07/03 10:28:33;;;;;;;7.50;6.80;;;;;;;;;;5088380;28;20290;-58
2021/07/03 10:31:14;;;;;;;9.38;7.00;;;;;;;;;;5069535;28;20652;-57
2021/07/03 10:33:44;;;;;;;8.07;7.38;;;;;;;;;;5081572;28;20227;-58
2021/07/03 10:36:20;;;;;;;8.80;8.00;;;;;;;;;;5077135;28;20180;-57
2021/07/03 10:38:46;;;;;;;7.30;6.68;;;;;;;;;;5077166;28;20192;-58
2021/07/03 10:41:12;;;;;;;7.05;6.35;;;;;;;;;;5087122;28;20187;-57
2021/07/03 10:43:48;;;;;;;8.18;7.00;;;;;;;;;;5065291;28;20699;-58
2021/07/03 10:46:35;;;;;;;8.30;6.97;;;;;;;;;;5066407;28;20219;-57
2021/07/03 10:49:11;;;;;;;6.88;6.28;;;;;;;;;;5087807;28;20191;-57
2021/07/03 10:51:39;;;;;;;7.47;6.68;;;;;;;;;;5070174;28;20245;-57
2021/07/03 10:54:12;;;;;;;9.15;7.22;;;;;;;;;;5084698;28;20204;-57
2021/07/03 10:56:46;;;;;;;8.63;7.72;;;;;;;;;;5065414;28;20185;-57
2021/07/03 10:59:15;;;;;;;8.88;7.97;;;;;;;;;;5069372;28;20686;-57
2021/07/03 11:01:40;;;;;;;7.85;7.03;;;;;;;;;;5088323;28;20185;-58
2021/07/03 11:04:17;;;;;;;7.22;6.53;;;;;;;;;;5077657;28;20209;-57
2021/07/03 11:06:44;;;;;;;7.38;6.15;;;;;;;;;;5082311;28;20196;-57
2021/07/03 11:09:28;;;;;;;6.97;5.60;;;;;;;;;;5069562;28;20188;-57
2021/07/03 11:12:09;;;;;;;6.45;5.82;;;;;;;;;;5084121;28;20185;-58
2021/07/03 11:14:38;;;;;;;7.00;6.40;;;;;;;;;;5074060;28;20240;-57
2021/07/03 11:17:04;;;;;;;9.50;7.22;;;;;;;;;;5076097;28;20605;-58
2021/07/03 11:19:29;;;;;;;10.02;6.35;;;;;;;;;;5081091;28;20223;-58
2021/07/03 11:22:09;;;;;;;7.72;6.90;;;;;;;;;;5072851;28;20645;-57
2021/07/03 11:24:47;;;;;;;8.20;6.35;;;;;;;;;;5082107;28;20295;-58
2021/07/03 11:27:23;;;;;;;7.60;6.15;;;;;;;;;;5083643;28;20271;-57
2021/07/03 11:29:49;;;;;;;7.05;6.32;;;;;;;;;;5083516;28;20280;-57
2021/07/03 11:32:14;;;;;;;5.60;5.10;;;;;;;;;;5079754;28;20294;-58
2021/07/03 11:34:50;;;;;;;6.13;5.63;;;;;;;;;;5082826;28;20287;-58
2021/07/03 11:37:32;;;;;;;7.32;5.35;;;;;;;;;;5084370;28;20685;-57
2021/07/03 11:39:59;;;;;;;7.72;6.47;;;;;;;;;;5073573;28;20667;-58
2021/07/03 11:42:31;;;;;;;9.70;6.75;;;;;;;;;;5070969;28;20250;-57
2021/07/03 11:44:56;;;;;;;8.38;6.72;;;;;;;;;;5065942;28;20288;-58
2021/07/03 11:47:52;;;;;;;6.80;6.05;;;;;;;;;;5082026;28;20636;-57
2021/07/03 11:50:20;;;;;;;6.78;5.93;;;;;;;;;;5056168;28;20690;-57
2021/07/03 11:52:57;;;;;;;7.57;6.55;;;;;;;;;;5087084;28;20644;-57
2021/07/03 11:55:25;;;;;;;9.77;8.00;;;;;;;;;;5085151;28;20291;-57
2021/07/03 11:57:51;;;;;;;10.18;7.40;;;;;;;;;;5079525;28;20197;-58
2021/07/03 12:00:18;;;;;;;8.07;6.65;;;;;;;;;;5055792;28;20195;-57
2021/07/03 12:02:44;;;;;;;12.70;7.20;;;;;;;;;;5086336;28;20216;-57
2021/07/03 12:05:10;;;;;;;7.90;6.20;;;;;;;;;;5076895;28;20264;-57
2021/07/03 12:07:36;;;;;;;7.03;6.32;;;;;;;;;;5080777;28;20196;-57
2021/07/03 12:10:10;;;;;;;12.02;6.93;;;;;;;;;;5085000;28;20193;-57
2021/07/03 12:12:37;;;;;;;8.60;6.82;;;;;;;;;;5083374;28;20206;-57
2021/07/03 12:15:08;;;;;;;8.20;6.68;;;;;;;;;;5077545;28;20223;-57
2021/07/03 12:17:34;;;;;;;7.57;6.65;;;;;;;;;;5076847;28;20704;-58
2021/07/03 12:20:09;;;;;;;7.68;6.00;;;;;;;;;;5086624;28;20238;-57
2021/07/03 12:22:35;;;;;;;6.97;6.18;;;;;;;;;;5066397;28;20227;-57
2021/07/03 12:25:16;;;;;;;5.80;5.30;;;;;;;;;;5077186;28;20228;-57
2021/07/03 12:27:50;;;;;;;7.18;6.03;;;;;;;;;;5077201;28;20192;-57
2021/07/03 12:30:18;;;;;;;6.07;5.43;;;;;;;;;;5074532;28;20189;-57
2021/07/03 12:32:44;;;;;;;6.03;5.45;;;;;;;;;;5088112;28;20176;-57
2021/07/03 12:35:12;;;;;;;8.25;6.28;;;;;;;;;;5073174;28;20204;-57
2021/07/03 12:37:38;;;;;;;6.75;6.05;;;;;;;;;;5059536;28;20844;-56
2021/07/03 12:40:14;;;;;;;6.60;6.00;;;;;;;;;;5090916;28;20190;-56
2021/07/03 12:42:40;;;;;;;7.40;5.97;;;;;;;;;;5075933;28;20193;-57
2021/07/03 12:45:08;;;;;;;6.53;5.93;;;;;;;;;;5085287;28;20703;-57
2021/07/03 12:47:34;;;;;;;5.72;5.05;;;;;;;;;;5085437;28;20228;-57
2021/07/03 12:50:00;;;;;;;5.85;5.30;;;;;;;;;;5090782;28;20180;-57
2021/07/03 12:52:41;;;;;;;6.60;5.15;;;;;;;;;;5083867;28;20245;-57
2021/07/03 12:55:08;;;;;;;4.75;4.25;;;;;;;;;;5065599;28;20626;-57
2021/07/03 12:57:41;;;;;;;6.25;5.18;;;;;;;;;;5077013;28;20208;-56
2021/07/03 13:00:08;;;;;;;9.93;5.20;;;;;;;;;;5087570;28;20204;-57
2021/07/03 13:02:35;;;;;;;9.07;5.10;;;;;;;;;;5071971;28;20688;-58
2021/07/03 13:05:01;;;;;;;5.53;5.03;;;;;;;;;;5081393;28;20505;-57
2021/07/03 13:07:26;;;;;;;5.75;4.55;;;;;;;;;;5073569;28;20268;-57
2021/07/03 13:09:52;;;;;;;5.70;5.15;;;;;;;;;;5089833;28;20671;-57
2021/07/03 13:12:17;;;;;;;5.38;4.88;;;;;;;;;;5066745;28;20212;-57
2021/07/03 13:14:42;;;;;;;5.40;4.82;;;;;;;;;;5085117;28;20200;-57
2021/07/03 13:17:08;;;;;;;4.78;4.38;;;;;;;;;;5089497;28;20181;-57
2021/07/03 13:19:33;;;;;;;4.82;4.43;;;;;;;;;;5083181;28;20188;-57
2021/07/03 13:21:59;;;;;;;5.70;4.68;;;;;;;;;;5070442;28;20189;-57
2021/07/03 13:24:24;;;;;;;6.43;5.75;;;;;;;;;;5083004;28;20242;-56
2021/07/03 13:26:50;;;;;;;5.93;5.10;;;;;;;;;;5087979;28;20739;-56
2021/07/03 13:29:15;;;;;;;6.75;5.45;;;;;;;;;;5082905;28;20655;-57
2021/07/03 13:31:42;;;;;;;5.72;5.10;;;;;;;;;;5085202;28;20241;-57
2021/07/03 13:34:08;;;;;;;6.10;4.90;;;;;;;;;;5083408;28;20207;-57
2021/07/03 13:36:33;;;;;;;5.40;4.68;;;;;;;;;;5071908;28;20180;-57
2021/07/03 13:38:58;;;;;;;5.90;4.70;;;;;;;;;;5085136;28;20192;-57
2021/07/03 13:41:23;;;;;;;4.93;4.43;;;;;;;;;;5088680;28;20176;-56
2021/07/03 13:43:49;;;;;;;6.22;4.35;;;;;;;;;;5074472;28;20173;-56
2021/07/03 13:46:16;;;;;;;9.05;3.90;;;;;;;;;;5085188;28;20192;-57
2021/07/03 13:48:42;;;;;;;4.53;4.10;;;;;;;;;;5081228;28;20235;-57
2021/07/03 13:51:08;;;;;;;5.13;3.90;;;;;;;;;;5084206;28;20726;-57
2021/07/03 13:53:34;;;;;;;4.78;4.38;;;;;;;;;;5074401;28;20185;-58
2021/07/03 13:55:59;;;;;;;4.97;3.78;;;;;;;;;;5078687;28;20205;-57
2021/07/03 13:58:26;;;;;;;5.45;4.32;;;;;;;;;;5086639;28;20288;-57
2021/07/03 14:00:52;;;;;;;5.40;4.60;;;;;;;;;;5087691;28;20738;-57
2021/07/03 14:03:17;;;;;;;8.88;4.50;;;;;;;;;;5086563;28;20185;-56
2021/07/03 14:05:43;;;;;;;5.03;4.53;;;;;;;;;;5068983;28;20291;-56
2021/07/03 14:08:09;;;;;;;5.07;4.57;;;;;;;;;;5088733;28;20674;-57
2021/07/03 14:10:34;;;;;;;5.00;3.90;;;;;;;;;;5066652;28;20667;-56
2021/07/03 14:12:59;;;;;;;4.75;4.25;;;;;;;;;;5084635;28;20188;-56
2021/07/03 14:15:24;;;;;;;5.28;4.20;;;;;;;;;;5084327;28;20203;-56
2021/07/03 14:17:50;;;;;;;4.43;3.90;;;;;;;;;;5084440;28;20185;-56
2021/07/03 14:20:15;;;;;;;5.93;3.83;;;;;;;;;;5060699;28;20276;-56
2021/07/03 14:22:40;;;;;;;4.05;3.65;;;;;;;;;;5073168;28;20262;-56
2021/07/03 14:25:07;;;;;;;4.53;3.88;;;;;;;;;;5070322;28;20639;-56